createdAt,value
2023-01-05T00:01:36.536Z,37.92
2023-01-05T00:04:06.933Z,26.00
2023-01-05T00:06:35.735Z,38.25
2023-01-05T00:09:04.234Z,27.23
2023-01-05T00:11:49.554Z,35.90
2023-01-05T00:14:36.838Z,31.10
2023-01-05T00:17:23.088Z,31.95
2023-01-05T00:20:10.023Z,29.70
2023-01-05T00:22:44.962Z,35.15
2023-01-05T00:25:15.179Z,32.53
2023-01-05T00:27:44.716Z,31.48
2023-01-05T00:30:15.964Z,33.22
2023-01-05T00:32:44.411Z,25.02
2023-01-05T00:35:15.648Z,32.75
2023-01-05T00:37:44.354Z,35.38
2023-01-05T00:40:14.562Z,35.45
2023-01-05T00:42:42.674Z,37.15
2023-01-05T00:45:12.884Z,33.00
2023-01-05T00:47:41.021Z,29.05
2023-01-05T00:50:10.242Z,27.92
2023-01-05T00:52:39.562Z,28.83
2023-01-05T00:55:08.520Z,36.88
2023-01-05T00:57:37.244Z,39.63
2023-01-05T01:00:06.463Z,26.40
2023-01-05T01:02:38.180Z,41.08
2023-01-05T01:05:08.831Z,40.85
2023-01-05T01:07:36.736Z,35.70
2023-01-05T01:10:09.288Z,40.53
2023-01-05T01:12:37.224Z,32.50
2023-01-05T01:15:06.710Z,32.63
2023-01-05T01:17:35.172Z,27.50
2023-01-05T01:20:03.313Z,33.03
2023-01-05T01:22:33.454Z,27.98
2023-01-05T01:25:01.348Z,25.48
2023-01-05T01:27:32.499Z,31.38
2023-01-05T01:30:02.491Z,34.10
2023-01-05T01:32:30.709Z,48.15
2023-01-05T01:34:58.524Z,29.27
2023-01-05T01:37:26.430Z,30.88
2023-01-05T01:39:56.559Z,26.83
2023-01-05T01:42:24.836Z,28.50
2023-01-05T01:44:57.980Z,30.83
2023-01-05T01:47:33.579Z,34.45
2023-01-05T01:50:05.226Z,45.08
2023-01-05T01:52:34.270Z,24.73
2023-01-05T01:55:05.758Z,38.28
2023-01-05T01:57:34.777Z,32.88
2023-01-05T02:00:08.880Z,28.33
2023-01-05T02:02:49.138Z,34.22
2023-01-05T02:05:25.465Z,35.10
2023-01-05T02:07:53.298Z,35.00
2023-01-05T02:10:30.928Z,37.13
2023-01-05T02:13:11.465Z,31.20
2023-01-05T02:15:47.859Z,23.73
2023-01-05T02:18:34.382Z,30.65
2023-01-05T02:21:22.595Z,31.35
2023-01-05T02:24:35.189Z,29.63
2023-01-05T02:27:37.028Z,24.52
2023-01-05T02:30:27.564Z,31.98
2023-01-05T02:33:03.057Z,33.13
2023-01-05T02:35:39.586Z,32.85
2023-01-05T02:38:15.602Z,26.10
2023-01-05T02:40:48.629Z,33.10
2023-01-05T02:43:20.545Z,31.20
2023-01-05T02:45:48.868Z,34.83
2023-01-05T02:48:18.884Z,31.20
2023-01-05T02:50:51.717Z,34.58
2023-01-05T02:53:23.455Z,34.15
2023-01-05T02:55:57.618Z,28.33
2023-01-05T02:58:35.415Z,38.20
2023-01-05T03:01:07.177Z,37.25
2023-01-05T03:03:42.152Z,29.95
2023-01-05T03:06:18.160Z,42.60
2023-01-05T03:08:52.402Z,43.05
2023-01-05T03:11:39.755Z,36.05
2023-01-05T03:14:14.076Z,34.53
2023-01-05T03:16:45.107Z,34.03
2023-01-05T03:19:35.929Z,30.20
2023-01-05T03:22:24.347Z,44.08
2023-01-05T03:25:10.830Z,38.85
2023-01-05T03:28:00.306Z,27.77
2023-01-05T03:30:53.457Z,33.33
2023-01-05T03:33:48.624Z,32.50
2023-01-05T03:36:22.604Z,43.55
2023-01-05T03:38:54.873Z,33.38
2023-01-05T03:41:26.991Z,36.25
2023-01-05T03:43:58.303Z,34.60
2023-01-05T03:46:26.302Z,40.38
2023-01-05T03:48:54.893Z,34.20
2023-01-05T03:51:24.713Z,27.85
2023-01-05T03:53:52.576Z,35.15
2023-01-05T03:56:20.846Z,31.15
2023-01-05T03:58:48.724Z,31.42
2023-01-05T04:01:17.037Z,27.75
2023-01-05T04:03:45.216Z,37.58
2023-01-05T04:06:13.451Z,37.97
2023-01-05T04:08:42.727Z,33.25
2023-01-05T04:11:13.312Z,29.77
2023-01-05T04:13:41.391Z,27.02
2023-01-05T04:16:09.702Z,30.80
2023-01-05T04:18:41.799Z,30.58
2023-01-05T04:21:11.116Z,32.15
2023-01-05T04:23:40.356Z,32.80
2023-01-05T04:26:10.648Z,39.08
2023-01-05T04:28:39.640Z,36.67
2023-01-05T04:31:10.230Z,34.22
2023-01-05T04:33:39.537Z,27.52
2023-01-05T04:36:09.315Z,28.15
2023-01-05T04:38:38.455Z,27.17
2023-01-05T04:41:07.459Z,27.17
2023-01-05T04:43:37.694Z,26.80
2023-01-05T04:46:06.043Z,37.97
2023-01-05T04:48:34.859Z,36.92
2023-01-05T04:51:05.197Z,30.80
2023-01-05T04:53:36.435Z,35.13
2023-01-05T04:56:06.788Z,29.92
2023-01-05T04:58:41.789Z,33.33
2023-01-05T05:01:10.115Z,41.15
2023-01-05T05:03:39.929Z,30.73
2023-01-05T05:06:11.314Z,45.53
2023-01-05T05:08:39.241Z,34.38
2023-01-05T05:11:07.983Z,34.63
2023-01-05T05:13:38.960Z,24.00
2023-01-05T05:16:09.334Z,33.00
2023-01-05T05:18:37.442Z,27.13
2023-01-05T05:21:06.968Z,26.60
2023-01-05T05:23:37.459Z,40.35
2023-01-05T05:26:06.399Z,39.80
2023-01-05T05:28:35.389Z,37.38
2023-01-05T05:31:03.741Z,28.42
2023-01-05T05:33:33.180Z,29.63
2023-01-05T05:36:01.073Z,29.50
2023-01-05T05:38:29.158Z,34.08
2023-01-05T05:40:57.033Z,34.63
2023-01-05T05:43:24.919Z,30.48
2023-01-05T05:45:52.944Z,45.72
2023-01-05T05:48:21.080Z,29.83
2023-01-05T05:50:50.619Z,31.50
2023-01-05T05:53:18.533Z,39.28
2023-01-05T05:55:49.680Z,34.25
2023-01-05T05:58:17.860Z,37.20
2023-01-05T06:00:45.933Z,23.58
2023-01-05T06:03:14.340Z,22.85
2023-01-05T06:05:42.678Z,31.95
2023-01-05T06:08:12.543Z,31.25
2023-01-05T06:10:40.543Z,32.78
2023-01-05T06:13:08.780Z,39.03
2023-01-05T06:15:36.689Z,35.22
2023-01-05T06:18:05.038Z,22.88
2023-01-05T06:20:33.467Z,31.00
2023-01-05T06:23:01.277Z,30.25
2023-01-05T06:25:30.638Z,40.50
2023-01-05T06:27:58.538Z,36.15
2023-01-05T06:30:27.000Z,29.27
2023-01-05T06:32:54.998Z,30.33
2023-01-05T06:35:23.190Z,39.15
2023-01-05T06:37:51.406Z,30.20
2023-01-05T06:40:19.645Z,33.53
2023-01-05T06:42:48.899Z,35.30
2023-01-05T06:45:17.691Z,40.03
2023-01-05T06:47:45.873Z,39.00
2023-01-05T06:50:14.015Z,40.47
2023-01-05T06:52:42.124Z,32.40
2023-01-05T06:55:12.300Z,36.78
2023-01-05T06:57:40.380Z,36.90
2023-01-05T07:00:12.911Z,38.17
2023-01-05T07:02:40.979Z,33.57
2023-01-05T07:05:10.265Z,32.63
2023-01-05T07:07:38.914Z,32.42
2023-01-05T07:10:08.181Z,25.42
2023-01-05T07:12:36.444Z,33.38
2023-01-05T07:15:06.221Z,38.67
2023-01-05T07:17:36.711Z,37.00
2023-01-05T07:20:05.576Z,34.30
2023-01-05T07:22:33.743Z,35.55
2023-01-05T07:25:01.685Z,34.42
2023-01-05T07:27:29.695Z,32.08
2023-01-05T07:29:57.630Z,35.15
2023-01-05T07:32:25.814Z,29.60
2023-01-05T07:34:56.100Z,36.08
2023-01-05T07:37:25.576Z,36.25
2023-01-05T07:39:53.561Z,37.58
2023-01-05T07:42:21.513Z,29.63
2023-01-05T07:44:51.861Z,32.70
2023-01-05T07:47:20.004Z,32.63
2023-01-05T07:49:48.157Z,41.85
2023-01-05T07:52:17.936Z,36.38
2023-01-05T07:54:46.285Z,39.70
2023-01-05T07:57:14.759Z,22.08
2023-01-05T07:59:42.740Z,31.48
2023-01-05T08:02:11.526Z,26.10
2023-01-05T08:04:39.898Z,40.90
2023-01-05T08:07:11.579Z,25.92
2023-01-05T08:09:58.473Z,21.23
2023-01-05T08:12:26.585Z,24.60
2023-01-05T08:14:54.412Z,28.75
2023-01-05T08:17:22.396Z,33.15
2023-01-05T08:19:50.359Z,21.92
2023-01-05T08:22:18.255Z,33.78
2023-01-05T08:24:47.518Z,25.70
2023-01-05T08:27:15.452Z,36.72
2023-01-05T08:29:43.367Z,20.90
2023-01-05T08:32:11.253Z,36.42
2023-01-05T08:34:39.503Z,26.63
2023-01-05T08:37:07.476Z,26.73
2023-01-05T08:39:36.471Z,28.92
2023-01-05T08:42:05.973Z,37.08
2023-01-05T08:44:34.019Z,30.75
2023-01-05T08:47:01.883Z,28.95
2023-01-05T08:49:29.979Z,42.22
2023-01-05T08:51:57.889Z,27.67
2023-01-05T08:54:26.213Z,29.92
2023-01-05T08:56:54.241Z,29.00
2023-01-05T08:59:23.522Z,40.00
2023-01-05T09:01:51.644Z,39.60
2023-01-05T09:04:19.980Z,26.80
2023-01-05T09:06:48.019Z,43.92
2023-01-05T09:09:15.892Z,46.65
2023-01-05T09:11:44.348Z,45.50
2023-01-05T09:14:15.514Z,30.45
2023-01-05T09:19:33.150Z,20.60
2023-01-05T09:22:01.232Z,17.30
2023-01-05T09:24:29.207Z,22.08
2023-01-05T09:26:57.762Z,24.45
2023-01-05T09:29:25.726Z,21.33
2023-01-05T09:31:55.208Z,25.65
2023-01-05T09:34:23.763Z,26.75
2023-01-05T09:36:51.749Z,24.35
2023-01-05T09:39:19.795Z,31.48
2023-01-05T09:41:50.616Z,23.90
2023-01-05T09:44:29.520Z,21.73
2023-01-05T09:47:03.674Z,13.38
2023-01-05T09:49:33.495Z,17.50
2023-01-05T09:52:03.460Z,17.70
2023-01-05T09:54:34.850Z,20.33
2023-01-05T09:57:09.907Z,22.60
2023-01-05T09:59:42.213Z,28.98
2023-01-05T10:02:19.895Z,23.08
2023-01-05T10:04:48.864Z,20.05
2023-01-05T10:07:26.761Z,19.90
2023-01-05T10:09:58.402Z,33.15
2023-01-05T10:12:49.951Z,21.92
2023-01-05T10:15:21.692Z,14.02
2023-01-05T10:17:51.280Z,14.55
2023-01-05T10:20:26.741Z,26.90
2023-01-05T10:23:06.562Z,26.23
2023-01-05T10:25:42.601Z,28.17
2023-01-05T10:28:27.898Z,35.08
2023-01-05T10:30:59.877Z,29.13
2023-01-05T10:33:51.991Z,18.33
2023-01-05T10:37:07.763Z,27.30
2023-01-05T10:40:03.366Z,26.00
2023-01-05T10:42:42.091Z,29.67
2023-01-05T10:45:12.806Z,19.85
2023-01-05T10:47:41.901Z,24.95
2023-01-05T10:50:35.080Z,20.95
2023-01-05T10:53:10.449Z,27.70
2023-01-05T10:55:46.496Z,15.02
2023-01-05T10:58:25.525Z,21.55
2023-01-05T11:00:58.098Z,19.92
2023-01-05T11:04:14.819Z,16.08
2023-01-05T11:06:28.268Z,19.05
2023-01-05T11:08:56.965Z,10.85
2023-01-05T11:11:26.805Z,13.43
2023-01-05T11:13:57.238Z,15.18
2023-01-05T11:16:28.912Z,11.00
2023-01-05T11:18:59.904Z,12.38
2023-01-05T11:21:43.456Z,16.40
2023-01-05T11:24:28.878Z,16.50
2023-01-05T11:26:59.629Z,17.83
2023-01-05T11:29:27.660Z,19.55
2023-01-05T11:31:59.832Z,23.65
2023-01-05T11:34:38.084Z,23.05
2023-01-05T11:37:14.756Z,27.60
2023-01-05T11:39:50.026Z,16.80
2023-01-05T11:42:25.334Z,31.17
2023-01-05T11:44:56.081Z,18.42
2023-01-05T11:47:29.545Z,24.92
2023-01-05T11:52:40.374Z,33.88
2023-01-05T11:55:31.070Z,24.42
2023-01-05T11:58:13.651Z,19.02
2023-01-05T12:01:04.914Z,13.32
2023-01-05T12:03:55.411Z,26.15
2023-01-05T12:06:38.176Z,24.83
2023-01-05T12:09:17.263Z,18.95
2023-01-05T12:11:51.156Z,20.33
2023-01-05T12:14:33.927Z,20.48
2023-01-05T12:17:07.937Z,26.05
2023-01-05T12:20:04.175Z,20.35
2023-01-05T12:23:13.947Z,23.92
2023-01-05T12:25:56.149Z,19.85
2023-01-05T12:29:34.385Z,17.00
2023-01-05T12:34:00.352Z,19.23
2023-01-05T12:35:18.156Z,16.30
2023-01-05T12:38:02.122Z,15.32
2023-01-05T12:40:45.587Z,14.48
2023-01-05T12:43:24.164Z,18.67
2023-01-05T12:46:14.588Z,16.02
2023-01-05T12:48:48.219Z,15.75
2023-01-05T12:53:56.587Z,17.77
2023-01-05T12:56:29.533Z,30.27
2023-01-05T12:59:12.424Z,22.80
2023-01-05T13:01:46.714Z,19.10
2023-01-05T13:04:38.882Z,20.65
2023-01-05T13:07:16.509Z,23.75
2023-01-05T13:09:46.830Z,19.15
2023-01-05T13:12:15.156Z,18.52
2023-01-05T13:14:52.714Z,26.40
2023-01-05T13:17:26.605Z,27.05
2023-01-05T13:20:04.070Z,29.98
2023-01-05T13:22:37.099Z,19.85
2023-01-05T13:25:17.491Z,22.38
2023-01-05T13:27:45.459Z,20.80
2023-01-05T13:30:23.856Z,27.13
2023-01-05T13:33:15.998Z,20.58
2023-01-05T13:35:57.449Z,17.30
2023-01-05T13:38:55.333Z,22.17
2023-01-05T13:41:40.748Z,23.90
2023-01-05T13:44:35.005Z,24.25
2023-01-05T13:47:45.173Z,17.23
2023-01-05T13:50:37.146Z,19.27
2023-01-05T13:53:10.442Z,17.52
2023-01-05T13:55:46.516Z,25.80
2023-01-05T13:58:41.700Z,18.33
2023-01-05T14:01:14.300Z,23.55
2023-01-05T14:03:50.576Z,17.43
2023-01-05T14:06:23.303Z,20.65
2023-01-05T14:08:57.216Z,27.83
2023-01-05T14:11:27.701Z,34.35
2023-01-05T14:13:58.386Z,27.45
2023-01-05T14:16:55.626Z,23.60
2023-01-05T14:19:52.484Z,19.58
2023-01-05T14:22:37.022Z,29.15
2023-01-05T14:25:59.420Z,37.08
2023-01-05T14:28:46.133Z,24.55
2023-01-05T14:31:52.982Z,24.83
2023-01-05T14:34:23.203Z,27.27
2023-01-05T14:37:04.341Z,23.13
2023-01-05T14:39:39.848Z,33.08
2023-01-05T14:42:17.389Z,21.85
2023-01-05T14:44:50.758Z,21.90
2023-01-05T14:47:33.351Z,31.02
2023-01-05T14:50:03.951Z,25.90
2023-01-05T14:52:55.763Z,26.02
2023-01-05T14:55:38.465Z,22.15
2023-01-05T15:00:49.601Z,22.05
2023-01-05T15:03:35.644Z,24.40
2023-01-05T15:06:10.166Z,30.17
2023-01-05T15:09:05.352Z,27.10
2023-01-05T15:12:00.012Z,24.20
2023-01-05T15:17:42.197Z,29.88
2023-01-05T15:20:39.868Z,20.42
2023-01-05T15:23:24.678Z,30.85
2023-01-05T15:26:21.461Z,23.13
2023-01-05T15:29:11.019Z,30.85
2023-01-05T15:31:44.665Z,31.40
2023-01-05T15:34:22.218Z,26.88
2023-01-05T15:36:55.928Z,18.90
2023-01-05T15:39:30.331Z,22.55
2023-01-05T15:42:06.894Z,26.98
2023-01-05T15:44:39.195Z,21.00
2023-01-05T15:47:10.819Z,35.00
2023-01-05T15:49:39.972Z,33.42
2023-01-05T15:52:20.297Z,34.15
2023-01-05T15:54:59.415Z,35.33
2023-01-05T15:57:29.696Z,32.30
2023-01-05T15:59:58.119Z,35.42
2023-01-05T16:02:27.916Z,30.17
2023-01-05T16:05:12.639Z,24.92
2023-01-05T16:07:45.917Z,24.23
2023-01-05T16:10:19.909Z,38.65
2023-01-05T16:12:52.846Z,29.15
2023-01-05T16:15:24.163Z,32.30
2023-01-05T16:17:56.552Z,25.20
2023-01-05T16:20:27.186Z,28.90
2023-01-05T16:23:04.671Z,39.67
2023-01-05T16:25:41.009Z,30.52
2023-01-05T16:28:17.417Z,32.10
2023-01-05T16:30:47.418Z,32.03
2023-01-05T16:33:34.727Z,28.20
2023-01-05T16:36:13.329Z,30.92
2023-01-05T16:38:42.580Z,40.38
2023-01-05T16:41:13.940Z,23.27
2023-01-05T16:43:46.805Z,34.35
2023-01-05T16:46:36.045Z,37.78
2023-01-05T16:49:33.654Z,38.75
2023-01-05T16:52:02.815Z,27.02
2023-01-05T16:54:39.258Z,31.88
2023-01-05T16:57:35.837Z,20.60
2023-01-05T17:00:27.770Z,34.30
2023-01-05T17:02:57.027Z,30.98
2023-01-05T17:05:27.698Z,33.25
2023-01-05T17:08:00.563Z,42.33
2023-01-05T17:10:29.231Z,38.07
2023-01-05T17:13:02.447Z,44.15
2023-01-05T17:15:34.969Z,55.85
2023-01-05T17:18:24.914Z,42.53
2023-01-05T17:20:55.767Z,39.63
2023-01-05T17:23:26.588Z,39.47
2023-01-05T17:25:56.658Z,44.08
2023-01-05T17:28:24.972Z,38.88
2023-01-05T17:30:54.943Z,41.03
2023-01-05T17:33:23.319Z,42.08
2023-01-05T17:35:52.255Z,56.38
2023-01-05T17:38:20.420Z,39.00
2023-01-05T17:40:49.055Z,52.70
2023-01-05T17:43:18.492Z,38.58
2023-01-05T17:45:46.904Z,39.90
2023-01-05T17:48:16.883Z,35.67
2023-01-05T17:50:45.740Z,42.30
2023-01-05T17:53:13.867Z,35.88
2023-01-05T17:55:43.238Z,42.35
2023-01-05T17:58:14.219Z,56.42
2023-01-05T18:03:22.475Z,35.72
2023-01-05T18:05:53.405Z,46.55
2023-01-05T18:08:22.632Z,52.20
2023-01-05T18:10:50.996Z,49.75
2023-01-05T18:13:21.518Z,54.22
2023-01-05T18:15:53.038Z,49.70
2023-01-05T18:18:23.168Z,55.88
2023-01-05T18:20:51.927Z,43.70
2023-01-05T18:23:20.931Z,42.65
2023-01-05T18:25:49.117Z,27.88
2023-01-05T18:28:18.104Z,55.60
2023-01-05T18:30:46.586Z,51.85
2023-01-05T18:33:14.739Z,49.75
2023-01-05T18:35:44.687Z,64.38
2023-01-05T18:38:12.799Z,43.67
2023-01-05T18:40:41.404Z,49.17
2023-01-05T18:43:09.602Z,62.22
2023-01-05T18:45:39.500Z,50.63
2023-01-05T18:48:08.984Z,48.28
2023-01-05T18:50:41.237Z,56.53
2023-01-05T18:53:10.706Z,48.10
2023-01-05T18:55:41.828Z,47.42
2023-01-05T18:58:10.236Z,52.85
2023-01-05T19:00:40.436Z,50.53
2023-01-05T19:03:09.976Z,39.03
2023-01-05T19:05:41.202Z,43.28
2023-01-05T19:08:12.295Z,50.78
2023-01-05T19:10:40.845Z,47.50
2023-01-05T19:13:09.504Z,49.28
2023-01-05T19:15:39.260Z,43.97
2023-01-05T19:18:07.516Z,47.92
2023-01-05T19:20:36.020Z,45.65
2023-01-05T19:23:04.549Z,56.05
2023-01-05T19:25:34.565Z,42.92
2023-01-05T19:28:02.948Z,57.25
2023-01-05T19:30:31.673Z,47.40
2023-01-05T19:33:01.080Z,47.28
2023-01-05T19:35:31.283Z,44.88
2023-01-05T19:38:00.614Z,43.20
2023-01-05T19:40:28.882Z,33.08
2023-01-05T19:42:58.297Z,47.67
2023-01-05T19:45:26.375Z,29.88
2023-01-05T19:47:54.717Z,38.78
2023-01-05T19:50:24.748Z,32.25
2023-01-05T19:52:53.656Z,36.53
2023-01-05T19:55:21.607Z,40.33
2023-01-05T19:57:49.578Z,32.00
2023-01-05T20:00:20.292Z,36.95
2023-01-05T20:02:48.713Z,33.17
2023-01-05T20:05:17.479Z,29.45
2023-01-05T20:07:45.415Z,30.05
2023-01-05T20:10:14.628Z,31.77
2023-01-05T20:12:43.002Z,32.13
2023-01-05T20:15:13.151Z,26.45
2023-01-05T20:17:45.402Z,22.63
2023-01-05T20:20:14.201Z,28.02
2023-01-05T20:22:42.280Z,34.70
2023-01-05T20:25:10.937Z,25.02
2023-01-05T20:27:39.765Z,29.73
2023-01-05T20:30:08.937Z,34.85
2023-01-05T20:32:36.987Z,35.90
2023-01-05T20:35:07.840Z,27.98
2023-01-05T20:37:35.917Z,35.55
2023-01-05T20:40:05.779Z,30.67
2023-01-05T20:42:34.724Z,35.80
2023-01-05T20:45:04.212Z,34.63
2023-01-05T20:47:43.297Z,42.40
2023-01-05T20:50:16.764Z,34.10
2023-01-05T20:52:44.644Z,30.75
2023-01-05T20:55:12.782Z,34.38
2023-01-05T20:57:41.204Z,37.42
2023-01-05T21:00:10.988Z,32.20
2023-01-05T21:02:39.350Z,29.35
2023-01-05T21:05:09.733Z,27.35
2023-01-05T21:07:39.100Z,30.35
2023-01-05T21:10:08.394Z,34.25
2023-01-05T21:12:36.310Z,37.25
2023-01-05T21:15:04.794Z,30.90
2023-01-05T21:17:34.009Z,35.00
2023-01-05T21:20:03.076Z,34.83
2023-01-05T21:22:31.194Z,32.95
2023-01-05T21:25:00.652Z,31.83
2023-01-05T21:27:28.503Z,29.25
2023-01-05T21:29:56.367Z,30.45
2023-01-05T21:32:24.543Z,41.15
2023-01-05T21:34:52.693Z,36.20
2023-01-05T21:37:20.782Z,32.35
2023-01-05T21:39:48.710Z,40.35
2023-01-05T21:42:35.433Z,33.38
2023-01-05T21:45:03.874Z,33.50
2023-01-05T21:47:31.816Z,38.15
2023-01-05T21:49:59.755Z,38.10
2023-01-05T21:52:44.511Z,38.85
2023-01-05T21:55:30.134Z,35.42
2023-01-05T21:57:59.840Z,43.72
2023-01-05T22:00:28.161Z,46.90
2023-01-05T22:02:56.303Z,40.50
2023-01-05T22:05:24.452Z,42.05
2023-01-05T22:07:52.446Z,41.15
2023-01-05T22:10:20.403Z,44.42
2023-01-05T22:12:49.792Z,45.47
2023-01-05T22:15:19.548Z,45.17
2023-01-05T22:17:47.615Z,52.05
2023-01-05T22:20:16.183Z,46.67
2023-01-05T22:22:44.015Z,43.63
2023-01-05T22:25:11.990Z,42.05
2023-01-05T22:27:40.112Z,50.08
2023-01-05T22:30:09.784Z,41.67
2023-01-05T22:32:39.627Z,41.28
2023-01-05T22:35:08.619Z,41.80
2023-01-05T22:37:36.601Z,45.72
2023-01-05T22:40:05.570Z,46.70
2023-01-05T22:42:33.576Z,49.22
2023-01-05T22:45:01.555Z,45.90
2023-01-05T22:47:29.642Z,39.60
2023-01-05T22:49:59.017Z,42.88
2023-01-05T22:52:26.969Z,50.38
2023-01-05T22:54:54.851Z,46.72
2023-01-05T22:57:22.769Z,47.45
2023-01-05T22:59:50.681Z,37.15
2023-01-05T23:02:18.598Z,50.30
2023-01-05T23:04:46.492Z,48.28
2023-01-05T23:07:20.575Z,46.38
2023-01-05T23:09:48.554Z,51.25
2023-01-05T23:12:16.538Z,44.47
2023-01-05T23:14:44.384Z,41.33
2023-01-05T23:17:12.418Z,44.70
2023-01-05T23:19:40.534Z,42.72
2023-01-05T23:22:10.792Z,39.70
2023-01-05T23:24:40.784Z,43.42
2023-01-05T23:27:08.734Z,43.60
2023-01-05T23:29:36.805Z,38.17
2023-01-05T23:32:05.798Z,44.67
2023-01-05T23:34:33.643Z,40.42
2023-01-05T23:37:01.499Z,42.95
2023-01-05T23:39:29.585Z,41.53
2023-01-05T23:41:58.887Z,40.60
2023-01-05T23:44:26.707Z,49.90
2023-01-05T23:46:54.696Z,37.15
2023-01-05T23:49:22.559Z,41.95
2023-01-05T23:51:50.448Z,35.50
2023-01-05T23:54:18.417Z,34.95
2023-01-05T23:56:46.389Z,39.97
2023-01-05T23:59:15.671Z,30.33
